Ashton, Maryland
Current Conditions -  °F | °C
As of 12:15 AM on Saturday 29 Nov 2014 (Local Time) from KGAI Reporting Station
Broken Clouds Broken Clouds  
Wind Chill: -4°   Ceiling: 9000
Heat Index: -4°   Visibility: 10mi
Dew Point: -7°   Wind: 0mph
Humidity: 80%   Direction: NA
Pressure: 30.32"   Gusts: NA
Location:  39.15°N, 77.01°W
Report Text: KGAI 290515Z 00000KT 10SM BKN090 M04/M07 A3032 RMK AO1
Loading
Personal Weather Stations






























Interactive Weather Map New forecast layout! Learn more

10-Day Weather Forecast

Advertisements
Track Severe Weather on mobile